Time;durP1;ratioP1;P1;durP2;ratioP2;P2;SDS_P1;SDS_P2;PMS_P1;PMS_P2;Temp;Humidity;BMP_temperature;BMP_pressure;BME280_temperature;BME280_humidity;BME280_pressure;Samples;Min_cycle;Max_cycle;Signal;HPM_P1;HPM_P2
2023/09/24 00:00:33;;;;;;;2.85;2.17;;;;;;;;;;4999357;28;20783;-50
2023/09/24 00:02:59;;;;;;;3.15;2.42;;;;;;;;;;4990525;28;20561;-50
2023/09/24 00:05:25;;;;;;;3.25;2.05;;;;;;;;;;5004709;28;20246;-50
2023/09/24 00:07:51;;;;;;;3.30;2.05;;;;;;;;;;4998790;28;20193;-50
2023/09/24 00:10:17;;;;;;;3.03;1.98;;;;;;;;;;5009058;28;20455;-50
2023/09/24 00:12:43;;;;;;;2.72;1.95;;;;;;;;;;5007932;28;20564;-50
2023/09/24 00:15:09;;;;;;;3.22;1.95;;;;;;;;;;5010693;28;20232;-50
2023/09/24 00:17:35;;;;;;;3.85;1.90;;;;;;;;;;5007619;28;20255;-50
2023/09/24 00:20:01;;;;;;;2.47;2.08;;;;;;;;;;4998017;28;20265;-50
2023/09/24 00:22:27;;;;;;;3.30;1.60;;;;;;;;;;4993841;28;20184;-50
2023/09/24 00:24:53;;;;;;;3.08;1.90;;;;;;;;;;5008260;28;20523;-49
2023/09/24 00:27:19;;;;;;;1.85;1.70;;;;;;;;;;4991170;28;20204;-50
2023/09/24 00:29:45;;;;;;;1.65;1.52;;;;;;;;;;5004770;28;20260;-50
2023/09/24 00:32:11;;;;;;;2.20;1.80;;;;;;;;;;4996104;28;20214;-50
2023/09/24 00:34:38;;;;;;;2.83;1.85;;;;;;;;;;5001130;28;20189;-50
2023/09/24 00:37:05;;;;;;;2.42;1.50;;;;;;;;;;4995065;28;20174;-50
2023/09/24 00:39:31;;;;;;;1.77;1.45;;;;;;;;;;5009083;28;20188;-49
2023/09/24 00:41:57;;;;;;;2.75;1.70;;;;;;;;;;5001705;28;20184;-47
2023/09/24 00:44:23;;;;;;;1.90;1.50;;;;;;;;;;5004019;28;20181;-50
2023/09/24 00:46:49;;;;;;;3.97;2.10;;;;;;;;;;5005039;28;20170;-49
2023/09/24 00:49:15;;;;;;;3.72;2.20;;;;;;;;;;5009899;28;20268;-49
2023/09/24 00:51:42;;;;;;;2.42;1.73;;;;;;;;;;4999752;28;20494;-49
2023/09/24 00:54:08;;;;;;;1.75;1.65;;;;;;;;;;5004024;28;20189;-50
2023/09/24 00:56:34;;;;;;;2.40;1.52;;;;;;;;;;4995631;28;20464;-50
2023/09/24 00:59:00;;;;;;;1.92;1.42;;;;;;;;;;5002501;28;20195;-49
2023/09/24 01:01:29;;;;;;;2.00;1.70;;;;;;;;;;5003893;28;20177;-49
2023/09/24 01:03:55;;;;;;;2.83;1.50;;;;;;;;;;5003332;28;20502;-50
2023/09/24 01:06:21;;;;;;;2.33;1.73;;;;;;;;;;5001411;28;20221;-49
2023/09/24 01:08:47;;;;;;;2.88;1.75;;;;;;;;;;4994108;28;20215;-50
2023/09/24 01:11:13;;;;;;;1.85;1.67;;;;;;;;;;5004605;28;20185;-50
2023/09/24 01:13:43;;;;;;;2.88;1.48;;;;;;;;;;5010060;28;20231;-46
2023/09/24 01:16:09;;;;;;;2.25;1.55;;;;;;;;;;5004691;28;20178;-49
2023/09/24 01:18:44;;;;;;;1.75;1.65;;;;;;;;;;5006179;28;20267;-50
2023/09/24 01:21:11;;;;;;;2.42;1.80;;;;;;;;;;4999812;28;20470;-50
2023/09/24 01:23:37;;;;;;;1.60;1.50;;;;;;;;;;5004337;28;20456;-49
2023/09/24 01:26:03;;;;;;;2.60;1.85;;;;;;;;;;4996935;28;20221;-49
2023/09/24 01:28:30;;;;;;;2.25;2.03;;;;;;;;;;4996382;28;20260;-50
2023/09/24 01:30:57;;;;;;;2.42;1.70;;;;;;;;;;4992238;28;20228;-50
2023/09/24 01:33:23;;;;;;;1.65;1.45;;;;;;;;;;5007968;28;20244;-50
2023/09/24 01:35:49;;;;;;;3.33;1.80;;;;;;;;;;4998917;28;20219;-49
2023/09/24 01:38:16;;;;;;;1.73;1.48;;;;;;;;;;5003491;28;20187;-50
2023/09/24 01:40:42;;;;;;;2.13;1.65;;;;;;;;;;5002923;28;20236;-50
2023/09/24 01:43:08;;;;;;;2.97;1.88;;;;;;;;;;4997909;28;20189;-50
2023/09/24 01:45:35;;;;;;;2.22;2.00;;;;;;;;;;5003047;28;20185;-50
2023/09/24 01:48:03;;;;;;;3.25;1.85;;;;;;;;;;5004950;28;20603;-49
2023/09/24 01:50:29;;;;;;;2.28;1.60;;;;;;;;;;4988796;28;20189;-50
2023/09/24 01:52:58;;;;;;;2.70;1.50;;;;;;;;;;5001995;28;20201;-49
2023/09/24 01:55:25;;;;;;;2.65;1.58;;;;;;;;;;4999920;28;20185;-49
2023/09/24 01:57:51;;;;;;;2.20;1.42;;;;;;;;;;4988253;28;20564;-50
2023/09/24 02:00:24;;;;;;;2.90;1.42;;;;;;;;;;4994572;28;20810;-49
2023/09/24 02:02:54;;;;;;;1.40;1.30;;;;;;;;;;5000606;28;20192;-49
2023/09/24 02:05:20;;;;;;;2.08;1.30;;;;;;;;;;5000803;28;20651;-49
2023/09/24 02:07:51;;;;;;;3.42;1.77;;;;;;;;;;5005547;28;20184;-49
2023/09/24 02:10:18;;;;;;;2.47;1.52;;;;;;;;;;4994747;28;20247;-49
2023/09/24 02:12:45;;;;;;;2.08;1.52;;;;;;;;;;4997486;28;20202;-49
2023/09/24 02:15:12;;;;;;;2.03;1.63;;;;;;;;;;5011822;28;20192;-50
2023/09/24 02:17:41;;;;;;;2.67;1.20;;;;;;;;;;5002735;28;20177;-50
2023/09/24 02:20:14;;;;;;;1.55;1.30;;;;;;;;;;5000372;28;20242;-49
2023/09/24 02:22:40;;;;;;;2.58;1.80;;;;;;;;;;4993086;28;20176;-50
2023/09/24 02:25:07;;;;;;;1.63;1.48;;;;;;;;;;5007054;28;20287;-50
2023/09/24 02:27:34;;;;;;;1.65;1.33;;;;;;;;;;4993902;28;20642;-50
2023/09/24 02:30:00;;;;;;;5.05;1.50;;;;;;;;;;5004498;28;20496;-50
2023/09/24 02:32:28;;;;;;;3.00;1.52;;;;;;;;;;5003789;28;20198;-50
2023/09/24 02:34:54;;;;;;;1.52;1.35;;;;;;;;;;4995066;28;20181;-50
2023/09/24 02:37:22;;;;;;;3.58;1.50;;;;;;;;;;5000090;28;20500;-50
2023/09/24 02:39:48;;;;;;;1.60;1.48;;;;;;;;;;5006272;28;20359;-50
2023/09/24 02:42:14;;;;;;;2.70;1.60;;;;;;;;;;4993664;28;20279;-50
2023/09/24 02:44:40;;;;;;;2.25;1.30;;;;;;;;;;5001869;28;20280;-50
2023/09/24 02:47:06;;;;;;;3.40;1.38;;;;;;;;;;4993203;28;20225;-50
2023/09/24 02:49:32;;;;;;;1.75;1.30;;;;;;;;;;4994924;28;20185;-50
2023/09/24 02:51:58;;;;;;;1.52;1.20;;;;;;;;;;5003204;28;20177;-50
2023/09/24 02:54:24;;;;;;;3.45;1.40;;;;;;;;;;5011254;28;20565;-50
2023/09/24 02:56:52;;;;;;;1.42;1.05;;;;;;;;;;4997431;28;20189;-49
2023/09/24 02:59:18;;;;;;;0.80;0.80;;;;;;;;;;4994896;28;20185;-50
2023/09/24 03:01:48;;;;;;;1.80;1.35;;;;;;;;;;4989466;28;20179;-50
2023/09/24 03:04:17;;;;;;;1.58;1.08;;;;;;;;;;4998934;28;20177;-50
2023/09/24 03:06:43;;;;;;;1.45;1.00;;;;;;;;;;5002410;28;20197;-50
2023/09/24 03:09:12;;;;;;;1.27;1.00;;;;;;;;;;4994203;28;20259;-50
2023/09/24 03:11:38;;;;;;;1.77;1.25;;;;;;;;;;4990545;28;20251;-50
2023/09/24 03:14:04;;;;;;;2.80;1.23;;;;;;;;;;5006023;28;20242;-50
2023/09/24 03:16:30;;;;;;;1.15;1.05;;;;;;;;;;4999335;28;20181;-49
2023/09/24 03:18:56;;;;;;;1.65;1.30;;;;;;;;;;4993074;28;20185;-49
2023/09/24 03:21:22;;;;;;;1.40;1.30;;;;;;;;;;4996402;28;20218;-49
2023/09/24 03:23:48;;;;;;;1.27;0.80;;;;;;;;;;5005966;28;20238;-50
2023/09/24 03:26:19;;;;;;;1.52;1.10;;;;;;;;;;5005539;28;20193;-49
2023/09/24 03:28:45;;;;;;;1.48;1.17;;;;;;;;;;5005666;28;20629;-49
2023/09/24 03:31:13;;;;;;;1.50;1.23;;;;;;;;;;5004194;28;20312;-49
2023/09/24 03:33:39;;;;;;;1.23;1.13;;;;;;;;;;4997776;28;20611;-50
2023/09/24 03:36:07;;;;;;;2.20;1.10;;;;;;;;;;5001031;28;20264;-50
2023/09/24 03:38:33;;;;;;;2.28;1.02;;;;;;;;;;5005123;28;20173;-49
2023/09/24 03:40:59;;;;;;;3.05;1.30;;;;;;;;;;5003745;28;20583;-49
2023/09/24 03:43:25;;;;;;;2.78;1.30;;;;;;;;;;5006601;28;20180;-50
2023/09/24 03:45:51;;;;;;;1.90;1.30;;;;;;;;;;5005036;28;20185;-49
2023/09/24 03:48:17;;;;;;;1.20;1.10;;;;;;;;;;5009089;28;20192;-50
2023/09/24 03:50:44;;;;;;;1.27;1.00;;;;;;;;;;5005044;28;20212;-49
2023/09/24 03:53:10;;;;;;;1.50;1.00;;;;;;;;;;5005518;28;20197;-50
2023/09/24 03:55:37;;;;;;;1.15;1.02;;;;;;;;;;5004070;28;20176;-49
2023/09/24 03:58:05;;;;;;;1.42;0.98;;;;;;;;;;4998315;28;20170;-50
2023/09/24 04:00:31;;;;;;;2.15;1.20;;;;;;;;;;5003504;28;20217;-50
2023/09/24 04:02:57;;;;;;;1.52;0.90;;;;;;;;;;5002211;28;20184;-50
2023/09/24 04:05:23;;;;;;;1.08;1.00;;;;;;;;;;5006172;28;20234;-49
2023/09/24 04:07:50;;;;;;;1.08;0.95;;;;;;;;;;5004463;28;20598;-50
2023/09/24 04:10:16;;;;;;;2.15;1.00;;;;;;;;;;5004665;28;20575;-50
2023/09/24 04:12:43;;;;;;;1.20;0.90;;;;;;;;;;4998019;28;20267;-49
2023/09/24 04:15:09;;;;;;;0.82;0.82;;;;;;;;;;5004408;28;20191;-49
2023/09/24 04:17:39;;;;;;;1.65;1.10;;;;;;;;;;5005111;28;20205;-50
2023/09/24 04:20:14;;;;;;;1.48;1.13;;;;;;;;;;4993242;28;20275;-49
2023/09/24 04:22:40;;;;;;;3.47;1.10;;;;;;;;;;5016742;28;20181;-50
2023/09/24 04:25:06;;;;;;;1.67;1.08;;;;;;;;;;4998597;28;21132;-50
2023/09/24 04:27:32;;;;;;;1.85;1.00;;;;;;;;;;5006599;28;20189;-50
2023/09/24 04:29:58;;;;;;;1.10;1.00;;;;;;;;;;5012130;28;20189;-50
2023/09/24 04:32:24;;;;;;;1.13;0.80;;;;;;;;;;4999339;28;20213;-50
2023/09/24 04:34:50;;;;;;;1.48;0.98;;;;;;;;;;4993315;28;20457;-50
2023/09/24 04:37:17;;;;;;;1.00;0.90;;;;;;;;;;4989190;28;20192;-50
2023/09/24 04:39:47;;;;;;;1.75;1.23;;;;;;;;;;5004681;28;20260;-51
2023/09/24 04:42:15;;;;;;;1.15;1.05;;;;;;;;;;5002203;28;20185;-50
2023/09/24 04:44:42;;;;;;;1.00;1.00;;;;;;;;;;5012354;28;20188;-49
2023/09/24 04:47:08;;;;;;;1.35;0.90;;;;;;;;;;5004768;28;20174;-49
2023/09/24 04:49:33;;;;;;;1.80;1.20;;;;;;;;;;5006497;28;20173;-50
2023/09/24 04:52:01;;;;;;;2.53;1.00;;;;;;;;;;5007510;28;20445;-50
2023/09/24 04:54:27;;;;;;;1.63;0.90;;;;;;;;;;5006509;28;20164;-50
2023/09/24 04:56:53;;;;;;;1.30;1.20;;;;;;;;;;4996912;28;20187;-49
2023/09/24 04:59:19;;;;;;;2.28;0.98;;;;;;;;;;5004028;28;20254;-50
2023/09/24 05:01:45;;;;;;;1.00;0.80;;;;;;;;;;5011369;28;20181;-50
2023/09/24 05:04:11;;;;;;;1.58;1.20;;;;;;;;;;5005905;28;20191;-50
2023/09/24 05:06:37;;;;;;;1.27;1.15;;;;;;;;;;5000991;28;20204;-49
2023/09/24 05:09:03;;;;;;;3.47;1.20;;;;;;;;;;5003745;28;20571;-50
2023/09/24 05:11:29;;;;;;;2.47;1.90;;;;;;;;;;5005159;28;20204;-49
2023/09/24 05:13:55;;;;;;;2.58;1.40;;;;;;;;;;5005051;28;20208;-50
2023/09/24 05:16:21;;;;;;;2.10;1.70;;;;;;;;;;4995793;28;20219;-50
2023/09/24 05:18:47;;;;;;;2.22;1.90;;;;;;;;;;5004523;28;20230;-50
2023/09/24 05:21:14;;;;;;;2.85;2.03;;;;;;;;;;4990071;28;20186;-50
2023/09/24 05:23:40;;;;;;;2.33;1.77;;;;;;;;;;5008658;28;20192;-50
2023/09/24 05:26:10;;;;;;;3.97;2.75;;;;;;;;;;5001421;28;20195;-50
2023/09/24 05:28:36;;;;;;;4.15;3.15;;;;;;;;;;4998789;28;20181;-50
2023/09/24 05:31:02;;;;;;;4.10;2.80;;;;;;;;;;5006130;28;20192;-50
2023/09/24 05:33:28;;;;;;;3.35;2.33;;;;;;;;;;5005783;28;20287;-50
2023/09/24 05:35:54;;;;;;;1.90;1.65;;;;;;;;;;4996991;28;20189;-50
2023/09/24 05:38:21;;;;;;;2.85;2.28;;;;;;;;;;5002336;28;20185;-49
2023/09/24 05:40:47;;;;;;;2.17;1.70;;;;;;;;;;5006466;28;20189;-50
2023/09/24 05:43:14;;;;;;;2.67;2.25;;;;;;;;;;5003929;28;20260;-50
2023/09/24 05:45:46;;;;;;;3.08;1.75;;;;;;;;;;5004594;28;20216;-49
2023/09/24 05:48:13;;;;;;;2.63;2.42;;;;;;;;;;5002709;28;20499;-49
2023/09/24 05:50:39;;;;;;;2.72;2.03;;;;;;;;;;5012702;28;20234;-49
2023/09/24 05:53:06;;;;;;;1.52;1.42;;;;;;;;;;4998626;28;20197;-50
2023/09/24 05:55:32;;;;;;;2.70;1.70;;;;;;;;;;5008352;28;20195;-50
2023/09/24 05:57:58;;;;;;;2.95;1.52;;;;;;;;;;4990782;28;20559;-50
2023/09/24 06:00:25;;;;;;;2.10;1.40;;;;;;;;;;4999960;28;20189;-50
2023/09/24 06:02:51;;;;;;;2.22;1.60;;;;;;;;;;4985601;28;20181;-50
2023/09/24 06:05:17;;;;;;;2.05;1.85;;;;;;;;;;4993951;28;20173;-51
2023/09/24 06:07:43;;;;;;;1.67;1.50;;;;;;;;;;4986799;28;20454;-49
2023/09/24 06:10:10;;;;;;;2.13;1.33;;;;;;;;;;4994913;28;20188;-50
2023/09/24 06:12:35;;;;;;;1.73;1.30;;;;;;;;;;4995524;28;20196;-50
2023/09/24 06:15:03;;;;;;;2.50;1.90;;;;;;;;;;5003625;28;20284;-50
2023/09/24 06:17:30;;;;;;;1.67;1.55;;;;;;;;;;4992413;28;20260;-50
2023/09/24 06:19:56;;;;;;;1.70;1.60;;;;;;;;;;4995563;28;20177;-49
2023/09/24 06:22:25;;;;;;;2.17;1.60;;;;;;;;;;4988853;28;20237;-50
2023/09/24 06:24:51;;;;;;;3.47;1.70;;;;;;;;;;5008539;28;20283;-50
2023/09/24 06:27:19;;;;;;;1.55;1.45;;;;;;;;;;5009320;28;20196;-50
2023/09/24 06:29:44;;;;;;;1.30;1.20;;;;;;;;;;5003907;28;20665;-49
2023/09/24 06:32:11;;;;;;;3.20;1.65;;;;;;;;;;4990203;28;20224;-50
2023/09/24 06:34:38;;;;;;;1.73;1.27;;;;;;;;;;4988645;28;20201;-50
2023/09/24 06:37:04;;;;;;;1.48;1.00;;;;;;;;;;4998480;28;20181;-50
2023/09/24 06:39:30;;;;;;;1.27;1.10;;;;;;;;;;5003079;28;20180;-52
2023/09/24 06:41:56;;;;;;;2.70;1.30;;;;;;;;;;4990413;28;20182;-50
2023/09/24 06:44:23;;;;;;;2.58;1.10;;;;;;;;;;5007291;28;20188;-50
2023/09/24 06:46:50;;;;;;;1.23;1.13;;;;;;;;;;5000764;28;20200;-50
2023/09/24 06:49:16;;;;;;;1.77;1.10;;;;;;;;;;5012257;28;20172;-50
2023/09/24 06:51:42;;;;;;;1.40;1.17;;;;;;;;;;4997200;28;20195;-50
2023/09/24 06:54:08;;;;;;;1.23;0.88;;;;;;;;;;5001471;28;20836;-50
2023/09/24 06:56:34;;;;;;;2.03;1.17;;;;;;;;;;4993721;28;20255;-50
2023/09/24 06:59:00;;;;;;;3.75;1.17;;;;;;;;;;5002795;28;20231;-49
2023/09/24 07:01:26;;;;;;;2.03;1.15;;;;;;;;;;5003332;28;20180;-50
2023/09/24 07:03:51;;;;;;;2.22;1.17;;;;;;;;;;4997992;28;20192;-50
2023/09/24 07:06:18;;;;;;;3.22;1.10;;;;;;;;;;4997191;28;20191;-50
2023/09/24 07:08:44;;;;;;;1.75;1.02;;;;;;;;;;5004439;28;20287;-50
2023/09/24 07:11:31;;;;;;;4.07;1.25;;;;;;;;;;4984347;28;20339;-50
2023/09/24 07:13:57;;;;;;;3.22;1.30;;;;;;;;;;5000430;28;20306;-49
2023/09/24 07:16:24;;;;;;;1.48;1.15;;;;;;;;;;4994690;28;20597;-50
2023/09/24 07:18:51;;;;;;;5.07;1.42;;;;;;;;;;5004896;28;20189;-50
2023/09/24 07:21:17;;;;;;;2.15;1.15;;;;;;;;;;5003086;28;20181;-50
2023/09/24 07:23:43;;;;;;;3.20;1.38;;;;;;;;;;5004654;28;20196;-50
2023/09/24 07:26:09;;;;;;;1.98;1.10;;;;;;;;;;5003106;28;20220;-50
2023/09/24 07:28:36;;;;;;;3.92;1.20;;;;;;;;;;4988125;28;20516;-47
2023/09/24 07:31:01;;;;;;;1.88;1.30;;;;;;;;;;4994586;28;20256;-50
2023/09/24 07:33:27;;;;;;;3.42;1.15;;;;;;;;;;5001040;28;20299;-50
2023/09/24 07:35:53;;;;;;;2.50;1.55;;;;;;;;;;4992287;28;20223;-51
2023/09/24 07:38:19;;;;;;;3.40;1.10;;;;;;;;;;4991638;28;20185;-49
2023/09/24 07:40:45;;;;;;;2.80;1.13;;;;;;;;;;4990299;28;20214;-49
2023/09/24 07:43:11;;;;;;;3.13;1.50;;;;;;;;;;4985025;28;20261;-49
2023/09/24 07:45:37;;;;;;;2.00;1.20;;;;;;;;;;4983040;28;20509;-50
2023/09/24 07:48:06;;;;;;;2.28;1.08;;;;;;;;;;4982149;28;20185;-50
2023/09/24 07:50:32;;;;;;;4.20;1.10;;;;;;;;;;4991966;28;20222;-51
2023/09/24 07:52:58;;;;;;;2.80;1.05;;;;;;;;;;4986730;28;20216;-49
2023/09/24 07:55:24;;;;;;;1.92;1.13;;;;;;;;;;4992349;28;20185;-49
2023/09/24 07:57:51;;;;;;;1.50;1.13;;;;;;;;;;4989510;28;20561;-54
2023/09/24 08:00:17;;;;;;;2.13;1.17;;;;;;;;;;4997951;28;20189;-50
2023/09/24 08:02:45;;;;;;;4.90;1.40;;;;;;;;;;4997363;28;20180;-50
2023/09/24 08:05:11;;;;;;;1.10;1.00;;;;;;;;;;4995539;28;20427;-50
2023/09/24 08:07:36;;;;;;;2.50;1.15;;;;;;;;;;4994953;28;20320;-50
2023/09/24 08:10:03;;;;;;;1.45;0.93;;;;;;;;;;5005062;28;20619;-50
2023/09/24 08:12:29;;;;;;;2.35;1.10;;;;;;;;;;5003755;28;20193;-50
2023/09/24 08:14:55;;;;;;;1.05;0.95;;;;;;;;;;4987178;28;20236;-49
2023/09/24 08:17:21;;;;;;;3.20;0.90;;;;;;;;;;4992525;28;20545;-50
2023/09/24 08:19:47;;;;;;;1.10;1.00;;;;;;;;;;4985928;28;20462;-49
2023/09/24 08:22:13;;;;;;;2.88;1.08;;;;;;;;;;4986581;28;20202;-50
2023/09/24 08:24:39;;;;;;;2.80;1.33;;;;;;;;;;4983748;28;20273;-50
2023/09/24 08:27:05;;;;;;;5.43;1.48;;;;;;;;;;4996303;28;20350;-50
2023/09/24 08:29:31;;;;;;;3.00;1.13;;;;;;;;;;5000166;28;20180;-49
2023/09/24 08:31:57;;;;;;;4.97;1.20;;;;;;;;;;4988350;28;20189;-50
2023/09/24 08:34:23;;;;;;;1.63;1.00;;;;;;;;;;4984232;28;20219;-50
2023/09/24 08:36:49;;;;;;;2.72;1.30;;;;;;;;;;4998553;28;20275;-50
2023/09/24 08:39:15;;;;;;;3.78;1.70;;;;;;;;;;5004573;28;20246;-50
2023/09/24 08:41:45;;;;;;;2.72;1.48;;;;;;;;;;4985177;28;20182;-50
2023/09/24 08:44:14;;;;;;;1.42;1.30;;;;;;;;;;5006759;28;20183;-50
2023/09/24 08:46:40;;;;;;;2.88;1.58;;;;;;;;;;4998445;28;20199;-50
2023/09/24 08:49:07;;;;;;;3.00;1.55;;;;;;;;;;5000763;28;20227;-50
2023/09/24 08:51:33;;;;;;;2.20;1.60;;;;;;;;;;4996962;28;20177;-50
2023/09/24 08:54:00;;;;;;;3.05;1.63;;;;;;;;;;5007640;28;20219;-50
2023/09/24 08:56:26;;;;;;;1.42;1.10;;;;;;;;;;4993512;28;20201;-50
2023/09/24 08:58:55;;;;;;;2.65;1.52;;;;;;;;;;5002720;28;20212;-50
2023/09/24 09:01:21;;;;;;;1.75;1.10;;;;;;;;;;4998537;28;20506;-50
2023/09/24 09:03:48;;;;;;;3.15;1.77;;;;;;;;;;4996296;28;20216;-50
2023/09/24 09:06:33;;;;;;;2.08;1.70;;;;;;;;;;5004094;28;20208;-50
2023/09/24 09:08:59;;;;;;;6.28;1.75;;;;;;;;;;5003523;28;20599;-50
2023/09/24 09:11:38;;;;;;;2.08;1.35;;;;;;;;;;4996484;28;20192;-50
2023/09/24 09:14:04;;;;;;;1.45;1.20;;;;;;;;;;5000051;28;20278;-50
2023/09/24 09:16:31;;;;;;;2.05;1.10;;;;;;;;;;5003349;28;20564;-50
2023/09/24 09:19:03;;;;;;;2.60;1.35;;;;;;;;;;4997560;28;20269;-50
2023/09/24 09:21:29;;;;;;;3.88;1.38;;;;;;;;;;5006898;28;20179;-50
2023/09/24 09:23:55;;;;;;;2.78;1.33;;;;;;;;;;5005968;28;20270;-50
2023/09/24 09:26:28;;;;;;;3.53;1.60;;;;;;;;;;4993525;28;20851;-50
2023/09/24 09:28:54;;;;;;;2.35;1.10;;;;;;;;;;4992154;28;20200;-50
2023/09/24 09:31:20;;;;;;;1.48;1.20;;;;;;;;;;5004368;28;20519;-50
2023/09/24 09:33:49;;;;;;;3.47;1.50;;;;;;;;;;5002593;28;20221;-50
2023/09/24 09:36:25;;;;;;;2.67;2.10;;;;;;;;;;4985175;28;20235;-50
2023/09/24 09:38:52;;;;;;;2.00;1.52;;;;;;;;;;4995316;28;20177;-50
2023/09/24 09:41:19;;;;;;;2.88;1.70;;;;;;;;;;4984945;28;20177;-50
2023/09/24 09:43:48;;;;;;;1.23;1.10;;;;;;;;;;5001331;28;20268;-48
2023/09/24 09:46:17;;;;;;;2.30;1.50;;;;;;;;;;4988166;28;20588;-49
2023/09/24 09:48:48;;;;;;;1.58;1.30;;;;;;;;;;4991778;28;20529;-49
2023/09/24 09:51:17;;;;;;;1.45;1.20;;;;;;;;;;4983997;28;20277;-50
2023/09/24 09:53:43;;;;;;;2.63;1.20;;;;;;;;;;4993054;28;20297;-50
2023/09/24 09:56:11;;;;;;;1.23;1.13;;;;;;;;;;4989670;28;20272;-50
2023/09/24 09:58:38;;;;;;;2.65;1.17;;;;;;;;;;4995592;28;20191;-50
2023/09/24 10:01:05;;;;;;;2.35;1.20;;;;;;;;;;5010699;28;20192;-50
2023/09/24 10:03:34;;;;;;;1.23;1.10;;;;;;;;;;4999614;28;20184;-50
2023/09/24 10:06:00;;;;;;;2.40;1.30;;;;;;;;;;4994056;28;20181;-50
2023/09/24 10:08:48;;;;;;;5.13;1.13;;;;;;;;;;5003143;28;20192;-50
2023/09/24 10:11:32;;;;;;;3.00;1.00;;;;;;;;;;5009221;28;20675;-50
2023/09/24 10:14:05;;;;;;;2.20;1.38;;;;;;;;;;5003076;28;20246;-50
2023/09/24 10:16:31;;;;;;;2.20;1.55;;;;;;;;;;5000289;28;20264;-50
2023/09/24 10:19:07;;;;;;;1.85;1.60;;;;;;;;;;4996298;28;20317;-50
2023/09/24 10:21:36;;;;;;;2.25;1.60;;;;;;;;;;5003256;28;20259;-50
2023/09/24 10:24:14;;;;;;;2.20;1.52;;;;;;;;;;5005407;28;20266;-50
2023/09/24 10:27:03;;;;;;;1.40;1.30;;;;;;;;;;4991458;28;20687;-49
2023/09/24 10:29:58;;;;;;;2.53;1.80;;;;;;;;;;4984566;28;20213;-50
2023/09/24 10:32:26;;;;;;;2.72;1.63;;;;;;;;;;4996328;28;20197;-50
2023/09/24 10:34:55;;;;;;;1.88;1.30;;;;;;;;;;4992078;28;20193;-50
2023/09/24 10:37:24;;;;;;;4.00;1.77;;;;;;;;;;4994023;28;20540;-51
2023/09/24 10:42:30;;;;;;;2.92;1.40;;;;;;;;;;4986852;28;20561;-50
2023/09/24 10:45:09;;;;;;;2.00;1.30;;;;;;;;;;4994842;28;20180;-50
2023/09/24 10:47:37;;;;;;;3.30;1.50;;;;;;;;;;4991028;28;20178;-50
2023/09/24 10:50:06;;;;;;;3.40;1.77;;;;;;;;;;4987190;28;20504;-50
2023/09/24 10:52:47;;;;;;;2.38;1.70;;;;;;;;;;4997903;28;20236;-50
2023/09/24 10:55:14;;;;;;;1.42;1.33;;;;;;;;;;5001103;28;20192;-50
2023/09/24 10:57:43;;;;;;;2.17;1.55;;;;;;;;;;4995931;28;20272;-50
2023/09/24 11:00:15;;;;;;;1.55;1.10;;;;;;;;;;4990841;28;20182;-50
2023/09/24 11:02:41;;;;;;;1.88;1.63;;;;;;;;;;5010478;28;20298;-49
2023/09/24 11:05:07;;;;;;;3.13;1.60;;;;;;;;;;5004708;28;20616;-50
2023/09/24 11:07:33;;;;;;;1.40;1.13;;;;;;;;;;5006575;28;20184;-50
2023/09/24 11:09:59;;;;;;;2.92;1.60;;;;;;;;;;4995761;28;20220;-50
2023/09/24 11:12:25;;;;;;;1.75;1.30;;;;;;;;;;4991943;28;20237;-50
2023/09/24 11:14:58;;;;;;;2.35;1.30;;;;;;;;;;4998415;28;20178;-50
2023/09/24 11:17:24;;;;;;;1.83;1.30;;;;;;;;;;5004756;28;20211;-49
2023/09/24 11:19:50;;;;;;;2.47;1.55;;;;;;;;;;5002333;28;20185;-50
2023/09/24 11:22:17;;;;;;;2.28;1.30;;;;;;;;;;4998668;28;20244;-51
2023/09/24 11:24:43;;;;;;;2.67;1.35;;;;;;;;;;4993766;28;20200;-50
2023/09/24 11:27:09;;;;;;;1.17;1.08;;;;;;;;;;4983372;28;20213;-49
2023/09/24 11:29:35;;;;;;;1.17;1.08;;;;;;;;;;4998963;28;20204;-50
2023/09/24 11:32:02;;;;;;;1.40;1.30;;;;;;;;;;5002342;28;20299;-50
2023/09/24 11:34:29;;;;;;;1.45;1.23;;;;;;;;;;4999218;28;20295;-51
2023/09/24 11:36:58;;;;;;;3.08;1.60;;;;;;;;;;5001593;28;20191;-50
2023/09/24 11:39:24;;;;;;;1.80;1.30;;;;;;;;;;5000675;28;20255;-51
2023/09/24 11:41:50;;;;;;;2.13;1.30;;;;;;;;;;5004793;28;20181;-51
2023/09/24 11:44:17;;;;;;;2.72;1.25;;;;;;;;;;5009190;28;20196;-50
2023/09/24 11:46:44;;;;;;;3.10;1.17;;;;;;;;;;5000438;28;20197;-50
2023/09/24 11:49:09;;;;;;;2.78;1.23;;;;;;;;;;5010327;28;20808;-50
2023/09/24 11:51:36;;;;;;;1.00;1.00;;;;;;;;;;4996957;28;20180;-50
2023/09/24 11:54:02;;;;;;;1.92;1.15;;;;;;;;;;5008318;28;20476;-51
2023/09/24 11:56:31;;;;;;;0.90;0.90;;;;;;;;;;4998427;28;20449;-49
2023/09/24 11:58:59;;;;;;;1.63;1.23;;;;;;;;;;4985859;28;20194;-50
2023/09/24 12:01:25;;;;;;;0.85;0.85;;;;;;;;;;5006599;28;20219;-51
2023/09/24 12:03:53;;;;;;;2.00;1.20;;;;;;;;;;5006104;28;20184;-51
2023/09/24 12:06:19;;;;;;;0.95;0.90;;;;;;;;;;5011416;28;20184;-51
2023/09/24 12:08:45;;;;;;;2.30;1.20;;;;;;;;;;5012665;28;20224;-50
2023/09/24 12:11:11;;;;;;;1.10;0.95;;;;;;;;;;5013631;28;20347;-51
2023/09/24 12:13:37;;;;;;;1.10;0.95;;;;;;;;;;5005130;28;20315;-50
2023/09/24 12:16:03;;;;;;;1.80;1.02;;;;;;;;;;5003957;28;20555;-51
2023/09/24 12:18:29;;;;;;;1.80;1.10;;;;;;;;;;4987723;28;20203;-50
2023/09/24 12:20:57;;;;;;;2.13;1.05;;;;;;;;;;4996970;28;20437;-51
2023/09/24 12:23:23;;;;;;;1.30;1.00;;;;;;;;;;4989405;28;20202;-51
2023/09/24 12:25:48;;;;;;;1.17;0.95;;;;;;;;;;5003474;28;20198;-51
2023/09/24 12:28:15;;;;;;;1.48;0.90;;;;;;;;;;4989824;28;20199;-51
2023/09/24 12:30:43;;;;;;;2.15;1.10;;;;;;;;;;4994545;28;20174;-49
2023/09/24 12:33:09;;;;;;;0.98;0.88;;;;;;;;;;4994499;28;20267;-51
2023/09/24 12:35:37;;;;;;;0.90;0.90;;;;;;;;;;5000957;28;20204;-50
2023/09/24 12:38:03;;;;;;;1.95;0.93;;;;;;;;;;4997125;28;20176;-50
2023/09/24 12:40:29;;;;;;;0.85;0.80;;;;;;;;;;5004153;28;20177;-50
2023/09/24 12:42:55;;;;;;;0.93;0.82;;;;;;;;;;4995544;28;20240;-50
2023/09/24 12:45:21;;;;;;;0.82;0.75;;;;;;;;;;5004221;28;20185;-51
2023/09/24 12:47:47;;;;;;;1.08;0.90;;;;;;;;;;4999249;28;20184;-50
2023/09/24 12:50:14;;;;;;;2.92;1.20;;;;;;;;;;5004528;28;20200;-50
2023/09/24 12:52:44;;;;;;;1.95;0.82;;;;;;;;;;5000639;28;20216;-49
2023/09/24 12:55:10;;;;;;;1.00;1.00;;;;;;;;;;5008022;28;20204;-49
2023/09/24 12:57:37;;;;;;;1.02;1.00;;;;;;;;;;5006438;28;20653;-50
2023/09/24 13:00:13;;;;;;;0.80;0.80;;;;;;;;;;5003498;28;20231;-50
2023/09/24 13:02:41;;;;;;;0.70;0.70;;;;;;;;;;5005098;28;20180;-49
2023/09/24 13:05:07;;;;;;;1.20;1.00;;;;;;;;;;5004357;28;20185;-50
2023/09/24 13:07:33;;;;;;;1.33;0.80;;;;;;;;;;5007035;28;20203;-49
2023/09/24 13:09:59;;;;;;;1.90;1.00;;;;;;;;;;4995404;28;20274;-50
2023/09/24 13:12:25;;;;;;;0.70;0.70;;;;;;;;;;4998668;28;20395;-53
2023/09/24 13:14:51;;;;;;;3.00;1.00;;;;;;;;;;5000232;28;20174;-51
2023/09/24 13:17:17;;;;;;;1.40;1.00;;;;;;;;;;5005002;28;20181;-51
2023/09/24 13:19:43;;;;;;;1.80;0.70;;;;;;;;;;5008045;28;20192;-50
2023/09/24 13:22:09;;;;;;;5.20;1.20;;;;;;;;;;5002792;28;20565;-50
2023/09/24 13:24:39;;;;;;;1.80;0.82;;;;;;;;;;5003829;28;20197;-51
2023/09/24 13:27:05;;;;;;;1.10;0.75;;;;;;;;;;4998028;28;20573;-51
2023/09/24 13:29:31;;;;;;;1.00;0.90;;;;;;;;;;4998525;28;20196;-51
2023/09/24 13:31:57;;;;;;;1.73;1.38;;;;;;;;;;5008018;28;20463;-50
2023/09/24 13:34:23;;;;;;;5.85;0.82;;;;;;;;;;5007940;28;20221;-51
2023/09/24 13:36:49;;;;;;;3.75;1.33;;;;;;;;;;5005890;28;20185;-50
2023/09/24 13:39:15;;;;;;;2.88;1.15;;;;;;;;;;5006879;28;20188;-51
2023/09/24 13:41:41;;;;;;;5.15;1.08;;;;;;;;;;5003372;28;20188;-50
2023/09/24 13:44:08;;;;;;;3.17;1.38;;;;;;;;;;4997605;28;20185;-50
2023/09/24 13:46:34;;;;;;;2.50;1.00;;;;;;;;;;4992135;28;20847;-51
2023/09/24 13:49:04;;;;;;;1.75;0.88;;;;;;;;;;5001291;28;20181;-51
2023/09/24 13:51:29;;;;;;;2.60;0.90;;;;;;;;;;4990777;28;20573;-51
2023/09/24 13:53:55;;;;;;;1.17;0.85;;;;;;;;;;4997484;28;20243;-51
2023/09/24 13:56:21;;;;;;;1.45;0.90;;;;;;;;;;4993227;28;20224;-51
2023/09/24 13:58:47;;;;;;;1.88;1.10;;;;;;;;;;4995837;28;20185;-51
2023/09/24 14:01:13;;;;;;;2.08;0.90;;;;;;;;;;5002162;28;20180;-51
2023/09/24 14:03:39;;;;;;;1.17;0.80;;;;;;;;;;4999900;28;20260;-51
2023/09/24 14:06:05;;;;;;;1.40;0.90;;;;;;;;;;4997406;28;20182;-51
2023/09/24 14:14:08;;;;;;;3.00;1.20;;;;;;;;;;5001971;28;20216;-51
2023/09/24 14:16:37;;;;;;;4.35;1.10;;;;;;;;;;5001780;28;20464;-51
2023/09/24 14:19:03;;;;;;;1.00;0.90;;;;;;;;;;5000450;28;20287;-51
2023/09/24 14:21:29;;;;;;;1.67;0.80;;;;;;;;;;4995769;28;20182;-51
2023/09/24 14:23:55;;;;;;;2.88;0.93;;;;;;;;;;5002262;28;20205;-51
2023/09/24 14:26:21;;;;;;;2.30;0.93;;;;;;;;;;4991777;28;20200;-51
2023/09/24 14:28:47;;;;;;;1.98;1.20;;;;;;;;;;4997988;28;20185;-51
2023/09/24 14:31:16;;;;;;;2.80;1.00;;;;;;;;;;4994802;28;20571;-51
2023/09/24 14:33:42;;;;;;;18.95;6.95;;;;;;;;;;5006734;28;20639;-51
2023/09/24 14:36:08;;;;;;;62.10;21.75;;;;;;;;;;4989748;28;20465;-51
2023/09/24 14:38:35;;;;;;;74.30;26.73;;;;;;;;;;5005680;28;20172;-50
2023/09/24 14:41:01;;;;;;;92.95;32.85;;;;;;;;;;4995453;28;20505;-51
2023/09/24 14:43:27;;;;;;;61.53;23.42;;;;;;;;;;4994868;28;20203;-51
2023/09/24 14:45:57;;;;;;;38.63;16.13;;;;;;;;;;4995953;28;20188;-51
2023/09/24 14:48:23;;;;;;;24.70;10.57;;;;;;;;;;4993900;28;20575;-51
2023/09/24 14:50:49;;;;;;;17.50;7.60;;;;;;;;;;4992166;28;20220;-50